Airfield :







YOU CAN JOIN US ON...

 
LOGIN :

Register | Disclaimer

   EN    FR    IT 

 









Legend :    VFR   Marginal VFR   IFR   Intensive IFR   Very Intensive IFR
Visi :
Ceiling :
>= 8 km
>= 3000ft
5 to 8 km
1000 to 3000 ft
1500m to 5 km
500 to 1000 ft
800 to 1500m
200 to 500 ft
< 800m
< 200 ft
Symbols :   Thunderstorms  Fog  Heavy snow  Heavy precipitations  Wind > 20 kt






- Airport Elevation : 477 ft
- IATA code : YHZ


CYHZ - Halifax Stanfield Int.

CURRENT METAR :
  • 090500Z 29013G20KT 5SM -RASN OVC004 01/01 A2932 RMK ST8 SLP936

EXPIRED METARs :
  • 090400Z 29015G22KT 4SM -RASN OVC004 01/01 A2930 RMK ST8 SLP929
  • 090335Z 30016G23KT 4SM -RASN OVC005 01/01 A2929 RMK ST8 SLP924
  • 090300Z 31015G23KT 3SM -SN OVC005 01/01 A2927 RMK ST8 SLP919
  • 090208Z 32017G23KT 3SM -SN OVC003 01/01 A2925 RMK ST8 SLP911

TAF TAF CYHZ
Valid from the 09 at 03:00 until the 10 at 00:00 UTC


090242Z 0903/0924 31015G25KT 2SM -SN BR OVC002
TEMPO 0903/0909 6SM -SNRA BR OVC006
BECMG 0904/0906 28015G30KT
FM090900 29018G28KT 5SM -SHRA BR BKN007 OVC015
TEMPO 0909/0912 P6SM NSW OVC015
FM091200 28015G25KT P6SM -SHRA BKN020 OVC030
FM091500 28015G25KT P6SM -SHRA BKN030 OVC040
FM092100 30010G20KT P6SM BKN040
BECMG 0922/0924 29006KT RMK NXT FCST BY 090600Z
CZQM FIR / North America



MET'MAP, your aeronautical weather chart ! - Copyright ORBIFLY December 2007 - Disclaimer

ORBIFLY MET'MAP TEAM :

Programming & Development : Alexandra Zaïnal
Concept & original design : Baudouin d'Aumeries
Assistance for programming : Marc-Olivier Méhu
Technical & hardware support : Manuel Goepfert

Contact : metmap@orbifly.com




SOURCES & CREDITS :

   NOAA